VIDP

Indira Gandhi International Airport

New Delhi, India
TAF VIDP 210500Z 2106/2212 14008KT 4000 HZ SCT040 BKN100 TEMPO 2109/2115 FEW035CB BECMG 2118/2120 10005KT 3000 BR TEMPO 2200/2206 1500 -TSRA FEW040CB BKN080 BECMG 2206/2208 11005KT 4000 HZ
Issued Valid From Valid To
Aug-21 @ 05:00 UTC
(13 hours ago)
Aug-21 @ 06:00 UTC
(12 hours ago)
Aug-22 @ 12:00 UTC
(in 18 hours)
Aug-21 @ 06:00 to Aug-21 @ 18:00
TAF VIDP 210500Z 2106/2212 14008KT 4000 HZ SCT040 BKN100
Wind Visibility Clouds Conditions
140° at 8 knots 4,007 meters
  • Scattered at 4,000' AGL
  • Broken at 10,000' AGL
  • Haze
Expired Click to View Aug-21 @ 09:00 to Aug-21 @ 15:00
TEMPO 2109/2115 FEW035CB
Clouds
  • Few at 3,500' AGL
Becoming Aug-21 @ 18:00 to Aug-22 @ 06:00
BECMG 2118/2120 10005KT 3000 BR
Wind Visibility Clouds Conditions
100° at 5 knots 2,993 meters
  • Scattered at 4,000' AGL
  • Broken at 10,000' AGL
  • Mist
Temporary Aug-22 @ 00:00 to Aug-22 @ 06:00
TEMPO 2200/2206 1500 -TSRA FEW040CB BKN080
Visibility Clouds Conditions
1,497 meters
  • Few at 4,000' AGL
  • Broken at 8,000' AGL
  • Light Thunderstorm
  • Light Rain
Becoming Aug-22 @ 06:00 to Aug-22 @ 12:00
BECMG 2206/2208 11005KT 4000 HZ
Wind Visibility Clouds Conditions
110° at 5 knots 4,007 meters
  • Scattered at 4,000' AGL
  • Broken at 10,000' AGL
  • Haze
TAF VIDP 210500Z 2106/2212 14008KT 4000 HZ SCT040 BKN100 TEMPO 2109/2115 FEW035CB BECMG 2118/2120 10005KT 3000 BR TEMPO 2200/2206 1500 -TSRA FEW040CB BKN080 BECMG 2206/2208 11005KT 4000 HZ
Issued Aug-21 @ 05:00 UTC
(13 hours ago)
Valid From Aug-21 @ 06:00 UTC
(12 hours ago)
Valid To Aug-22 @ 12:00 UTC
(in 18 hours)
Aug-21 @ 06:00 - Aug-21 @ 18:00
Wind Visibility
140° at 8 knots 4,007 meters
Clouds
  • Scattered at 4,000' AGL
  • Broken at 10,000' AGL
Conditions
  • Haze
Aug-21 @ 09:00 - Aug-21 @ 15:00
Clouds
  • Few at 3,500' AGL
Becoming Aug-21 @ 18:00 - Aug-22 @ 06:00
Wind Visibility
100° at 5 knots 2,993 meters
Clouds
  • Scattered at 4,000' AGL
  • Broken at 10,000' AGL
Conditions
  • Mist
Temporary Aug-22 @ 00:00 - Aug-22 @ 06:00
Clouds
  • Few at 4,000' AGL
  • Broken at 8,000' AGL
Conditions
  • Light Thunderstorm
  • Light Rain
Becoming Aug-22 @ 06:00 - Aug-22 @ 12:00
Wind Visibility
110° at 5 knots 4,007 meters
Clouds
  • Scattered at 4,000' AGL
  • Broken at 10,000' AGL
Conditions
  • Haze